sensor_id;sensor_type;location;lat;lon;timestamp;P1;durP1;ratioP1;P2;durP2;ratioP2
12385;SDS011;6257;57.634;18.310;2022-10-18T00:02:11;11.93;;;8.00;;
12385;SDS011;6257;57.634;18.310;2022-10-18T00:04:38;13.07;;;8.50;;
12385;SDS011;6257;57.634;18.310;2022-10-18T00:07:05;12.03;;;7.53;;
12385;SDS011;6257;57.634;18.310;2022-10-18T00:09:33;11.97;;;6.97;;
12385;SDS011;6257;57.634;18.310;2022-10-18T00:12:01;11.23;;;7.53;;
12385;SDS011;6257;57.634;18.310;2022-10-18T00:14:29;8.30;;;7.03;;
12385;SDS011;6257;57.634;18.310;2022-10-18T00:16:56;11.33;;;7.53;;
12385;SDS011;6257;57.634;18.310;2022-10-18T00:19:23;7.53;;;6.83;;
12385;SDS011;6257;57.634;18.310;2022-10-18T00:21:50;9.67;;;7.23;;
12385;SDS011;6257;57.634;18.310;2022-10-18T00:24:17;10.43;;;7.97;;
12385;SDS011;6257;57.634;18.310;2022-10-18T00:26:44;9.77;;;7.10;;
12385;SDS011;6257;57.634;18.310;2022-10-18T00:29:13;10.33;;;6.87;;
12385;SDS011;6257;57.634;18.310;2022-10-18T00:31:41;9.27;;;7.50;;
12385;SDS011;6257;57.634;18.310;2022-10-18T00:34:10;10.77;;;7.33;;
12385;SDS011;6257;57.634;18.310;2022-10-18T00:36:39;9.23;;;7.30;;
12385;SDS011;6257;57.634;18.310;2022-10-18T00:39:07;10.20;;;6.97;;
12385;SDS011;6257;57.634;18.310;2022-10-18T00:41:37;13.33;;;7.53;;
12385;SDS011;6257;57.634;18.310;2022-10-18T00:44:05;13.67;;;7.93;;
12385;SDS011;6257;57.634;18.310;2022-10-18T00:46:55;10.33;;;6.90;;
12385;SDS011;6257;57.634;18.310;2022-10-18T00:49:28;10.53;;;6.97;;
12385;SDS011;6257;57.634;18.310;2022-10-18T00:51:58;8.97;;;6.73;;
12385;SDS011;6257;57.634;18.310;2022-10-18T00:54:28;8.60;;;6.50;;
12385;SDS011;6257;57.634;18.310;2022-10-18T00:56:56;13.80;;;7.27;;
12385;SDS011;6257;57.634;18.310;2022-10-18T00:59:24;9.63;;;7.60;;
12385;SDS011;6257;57.634;18.310;2022-10-18T01:01:51;9.33;;;7.23;;
12385;SDS011;6257;57.634;18.310;2022-10-18T01:04:20;11.30;;;7.57;;
12385;SDS011;6257;57.634;18.310;2022-10-18T01:06:48;9.97;;;6.80;;
12385;SDS011;6257;57.634;18.310;2022-10-18T01:09:21;10.20;;;6.80;;
12385;SDS011;6257;57.634;18.310;2022-10-18T01:12:00;8.30;;;6.47;;
12385;SDS011;6257;57.634;18.310;2022-10-18T01:14:41;12.37;;;6.97;;
12385;SDS011;6257;57.634;18.310;2022-10-18T01:17:13;9.13;;;6.93;;
12385;SDS011;6257;57.634;18.310;2022-10-18T01:23:16;8.47;;;6.00;;
12385;SDS011;6257;57.634;18.310;2022-10-18T01:25:49;10.43;;;6.67;;
12385;SDS011;6257;57.634;18.310;2022-10-18T01:28:27;10.17;;;6.00;;
12385;SDS011;6257;57.634;18.310;2022-10-18T01:31:05;8.87;;;6.90;;
12385;SDS011;6257;57.634;18.310;2022-10-18T01:33:38;8.50;;;6.90;;
12385;SDS011;6257;57.634;18.310;2022-10-18T01:36:10;10.37;;;7.20;;
12385;SDS011;6257;57.634;18.310;2022-10-18T01:38:42;9.17;;;7.20;;
12385;SDS011;6257;57.634;18.310;2022-10-18T01:41:12;11.13;;;7.70;;
12385;SDS011;6257;57.634;18.310;2022-10-18T01:43:42;11.87;;;7.77;;
12385;SDS011;6257;57.634;18.310;2022-10-18T01:46:16;11.03;;;6.57;;
12385;SDS011;6257;57.634;18.310;2022-10-18T01:48:45;10.27;;;6.90;;
12385;SDS011;6257;57.634;18.310;2022-10-18T01:51:12;11.10;;;6.53;;
12385;SDS011;6257;57.634;18.310;2022-10-18T01:53:39;9.77;;;7.00;;
12385;SDS011;6257;57.634;18.310;2022-10-18T01:56:10;12.53;;;7.80;;
12385;SDS011;6257;57.634;18.310;2022-10-18T01:58:47;9.53;;;6.37;;
12385;SDS011;6257;57.634;18.310;2022-10-18T02:01:35;12.37;;;7.03;;
12385;SDS011;6257;57.634;18.310;2022-10-18T02:04:14;11.40;;;6.90;;
12385;SDS011;6257;57.634;18.310;2022-10-18T02:06:57;12.97;;;7.23;;
12385;SDS011;6257;57.634;18.310;2022-10-18T02:09:32;9.90;;;6.70;;
12385;SDS011;6257;57.634;18.310;2022-10-18T02:12:04;10.77;;;7.10;;
12385;SDS011;6257;57.634;18.310;2022-10-18T02:14:34;11.03;;;7.67;;
12385;SDS011;6257;57.634;18.310;2022-10-18T02:17:04;14.70;;;7.30;;
12385;SDS011;6257;57.634;18.310;2022-10-18T02:19:35;10.83;;;6.70;;
12385;SDS011;6257;57.634;18.310;2022-10-18T02:22:04;13.23;;;6.90;;
12385;SDS011;6257;57.634;18.310;2022-10-18T02:24:34;10.40;;;7.00;;
12385;SDS011;6257;57.634;18.310;2022-10-18T02:27:05;9.93;;;7.10;;
12385;SDS011;6257;57.634;18.310;2022-10-18T02:29:32;10.10;;;6.63;;
12385;SDS011;6257;57.634;18.310;2022-10-18T02:32:02;9.30;;;6.43;;
12385;SDS011;6257;57.634;18.310;2022-10-18T02:34:34;9.47;;;6.90;;
12385;SDS011;6257;57.634;18.310;2022-10-18T02:37:04;12.43;;;6.73;;
12385;SDS011;6257;57.634;18.310;2022-10-18T02:39:33;11.93;;;6.83;;
12385;SDS011;6257;57.634;18.310;2022-10-18T02:42:02;14.60;;;6.97;;
12385;SDS011;6257;57.634;18.310;2022-10-18T02:44:31;11.13;;;6.57;;
12385;SDS011;6257;57.634;18.310;2022-10-18T02:46:58;10.70;;;5.73;;
12385;SDS011;6257;57.634;18.310;2022-10-18T02:49:27;12.20;;;7.00;;
12385;SDS011;6257;57.634;18.310;2022-10-18T02:51:53;10.40;;;6.30;;
12385;SDS011;6257;57.634;18.310;2022-10-18T02:54:21;16.13;;;6.50;;
12385;SDS011;6257;57.634;18.310;2022-10-18T02:56:48;14.97;;;6.00;;
12385;SDS011;6257;57.634;18.310;2022-10-18T02:59:15;14.60;;;6.10;;
12385;SDS011;6257;57.634;18.310;2022-10-18T03:01:42;9.87;;;5.83;;
12385;SDS011;6257;57.634;18.310;2022-10-18T03:04:09;9.60;;;5.63;;
12385;SDS011;6257;57.634;18.310;2022-10-18T03:06:38;11.67;;;5.30;;
12385;SDS011;6257;57.634;18.310;2022-10-18T03:09:05;9.27;;;5.70;;
12385;SDS011;6257;57.634;18.310;2022-10-18T03:11:32;14.00;;;5.57;;
12385;SDS011;6257;57.634;18.310;2022-10-18T03:14:00;19.43;;;6.30;;
12385;SDS011;6257;57.634;18.310;2022-10-18T03:16:27;11.30;;;6.03;;
12385;SDS011;6257;57.634;18.310;2022-10-18T03:18:53;15.40;;;5.77;;
12385;SDS011;6257;57.634;18.310;2022-10-18T03:21:20;12.23;;;6.30;;
12385;SDS011;6257;57.634;18.310;2022-10-18T03:23:49;11.43;;;5.03;;
12385;SDS011;6257;57.634;18.310;2022-10-18T03:26:16;15.63;;;5.93;;
12385;SDS011;6257;57.634;18.310;2022-10-18T03:28:43;11.27;;;5.13;;
12385;SDS011;6257;57.634;18.310;2022-10-18T03:31:10;13.50;;;5.40;;
12385;SDS011;6257;57.634;18.310;2022-10-18T03:33:37;9.73;;;5.07;;
12385;SDS011;6257;57.634;18.310;2022-10-18T03:36:04;9.70;;;5.37;;
12385;SDS011;6257;57.634;18.310;2022-10-18T03:38:31;19.03;;;5.67;;
12385;SDS011;6257;57.634;18.310;2022-10-18T03:40:59;12.30;;;5.17;;
12385;SDS011;6257;57.634;18.310;2022-10-18T03:43:26;12.23;;;5.37;;
12385;SDS011;6257;57.634;18.310;2022-10-18T03:45:53;8.13;;;4.97;;
12385;SDS011;6257;57.634;18.310;2022-10-18T03:48:20;9.07;;;4.80;;
12385;SDS011;6257;57.634;18.310;2022-10-18T03:50:48;10.80;;;5.10;;
12385;SDS011;6257;57.634;18.310;2022-10-18T03:53:15;11.83;;;5.10;;
12385;SDS011;6257;57.634;18.310;2022-10-18T03:55:42;9.17;;;4.80;;
12385;SDS011;6257;57.634;18.310;2022-10-18T03:58:10;13.87;;;5.13;;
12385;SDS011;6257;57.634;18.310;2022-10-18T04:00:37;14.20;;;4.57;;
12385;SDS011;6257;57.634;18.310;2022-10-18T04:03:04;10.60;;;4.57;;
12385;SDS011;6257;57.634;18.310;2022-10-18T04:05:31;8.57;;;4.57;;
12385;SDS011;6257;57.634;18.310;2022-10-18T04:07:59;15.93;;;4.33;;
12385;SDS011;6257;57.634;18.310;2022-10-18T04:10:26;9.80;;;4.67;;
12385;SDS011;6257;57.634;18.310;2022-10-18T04:12:53;13.50;;;4.07;;
12385;SDS011;6257;57.634;18.310;2022-10-18T04:15:21;7.27;;;4.07;;
12385;SDS011;6257;57.634;18.310;2022-10-18T04:17:48;12.20;;;3.57;;
12385;SDS011;6257;57.634;18.310;2022-10-18T04:20:16;11.60;;;4.30;;
12385;SDS011;6257;57.634;18.310;2022-10-18T04:22:43;13.97;;;3.67;;
12385;SDS011;6257;57.634;18.310;2022-10-18T04:25:10;8.83;;;2.90;;
12385;SDS011;6257;57.634;18.310;2022-10-18T04:27:37;7.23;;;2.83;;
12385;SDS011;6257;57.634;18.310;2022-10-18T04:30:04;9.20;;;3.37;;
12385;SDS011;6257;57.634;18.310;2022-10-18T04:32:33;7.90;;;3.50;;
12385;SDS011;6257;57.634;18.310;2022-10-18T04:35:00;8.83;;;2.90;;
12385;SDS011;6257;57.634;18.310;2022-10-18T04:37:28;7.73;;;3.00;;
12385;SDS011;6257;57.634;18.310;2022-10-18T04:39:55;10.23;;;3.33;;
12385;SDS011;6257;57.634;18.310;2022-10-18T04:42:22;8.13;;;2.90;;
12385;SDS011;6257;57.634;18.310;2022-10-18T04:44:49;10.83;;;3.13;;
12385;SDS011;6257;57.634;18.310;2022-10-18T04:47:16;10.53;;;3.10;;
12385;SDS011;6257;57.634;18.310;2022-10-18T04:49:44;6.47;;;2.70;;
12385;SDS011;6257;57.634;18.310;2022-10-18T04:52:11;9.67;;;2.63;;
12385;SDS011;6257;57.634;18.310;2022-10-18T04:54:38;6.50;;;2.63;;
12385;SDS011;6257;57.634;18.310;2022-10-18T04:57:05;9.67;;;2.60;;
12385;SDS011;6257;57.634;18.310;2022-10-18T04:59:32;10.40;;;3.47;;
12385;SDS011;6257;57.634;18.310;2022-10-18T05:01:59;5.07;;;2.50;;
12385;SDS011;6257;57.634;18.310;2022-10-18T05:04:26;11.03;;;2.83;;
12385;SDS011;6257;57.634;18.310;2022-10-18T05:06:55;10.37;;;2.90;;
12385;SDS011;6257;57.634;18.310;2022-10-18T05:09:22;6.47;;;2.20;;
12385;SDS011;6257;57.634;18.310;2022-10-18T05:11:49;13.37;;;3.13;;
12385;SDS011;6257;57.634;18.310;2022-10-18T05:14:16;8.13;;;2.20;;
12385;SDS011;6257;57.634;18.310;2022-10-18T05:16:43;11.67;;;2.80;;
12385;SDS011;6257;57.634;18.310;2022-10-18T05:19:10;4.80;;;1.93;;
12385;SDS011;6257;57.634;18.310;2022-10-18T05:21:37;4.27;;;2.03;;
12385;SDS011;6257;57.634;18.310;2022-10-18T05:24:06;9.53;;;2.10;;
12385;SDS011;6257;57.634;18.310;2022-10-18T05:26:33;5.50;;;2.10;;
12385;SDS011;6257;57.634;18.310;2022-10-18T05:29:00;6.03;;;2.03;;
12385;SDS011;6257;57.634;18.310;2022-10-18T05:31:27;4.80;;;1.77;;
12385;SDS011;6257;57.634;18.310;2022-10-18T05:33:54;7.80;;;1.97;;
12385;SDS011;6257;57.634;18.310;2022-10-18T05:36:22;8.77;;;2.27;;
12385;SDS011;6257;57.634;18.310;2022-10-18T05:38:50;7.47;;;2.00;;
12385;SDS011;6257;57.634;18.310;2022-10-18T05:41:19;6.60;;;2.30;;
12385;SDS011;6257;57.634;18.310;2022-10-18T05:43:46;6.33;;;1.87;;
12385;SDS011;6257;57.634;18.310;2022-10-18T05:46:13;4.40;;;1.90;;
12385;SDS011;6257;57.634;18.310;2022-10-18T05:48:40;6.07;;;1.90;;
12385;SDS011;6257;57.634;18.310;2022-10-18T05:51:08;6.20;;;1.97;;
12385;SDS011;6257;57.634;18.310;2022-10-18T05:53:35;7.03;;;1.60;;
12385;SDS011;6257;57.634;18.310;2022-10-18T05:56:02;6.70;;;1.90;;
12385;SDS011;6257;57.634;18.310;2022-10-18T05:58:31;6.53;;;1.63;;
12385;SDS011;6257;57.634;18.310;2022-10-18T06:00:58;5.77;;;1.70;;
12385;SDS011;6257;57.634;18.310;2022-10-18T06:03:25;6.23;;;1.80;;
12385;SDS011;6257;57.634;18.310;2022-10-18T06:05:57;5.23;;;1.60;;
12385;SDS011;6257;57.634;18.310;2022-10-18T06:08:25;6.27;;;1.70;;
12385;SDS011;6257;57.634;18.310;2022-10-18T06:10:53;6.87;;;1.70;;
12385;SDS011;6257;57.634;18.310;2022-10-18T06:13:20;6.27;;;1.77;;
12385;SDS011;6257;57.634;18.310;2022-10-18T06:15:48;5.53;;;1.50;;
12385;SDS011;6257;57.634;18.310;2022-10-18T06:18:15;7.53;;;1.77;;
12385;SDS011;6257;57.634;18.310;2022-10-18T06:20:42;6.53;;;1.80;;
12385;SDS011;6257;57.634;18.310;2022-10-18T06:23:09;4.60;;;1.97;;
12385;SDS011;6257;57.634;18.310;2022-10-18T06:25:36;6.57;;;2.00;;
12385;SDS011;6257;57.634;18.310;2022-10-18T06:28:03;6.43;;;1.83;;
12385;SDS011;6257;57.634;18.310;2022-10-18T06:30:30;6.13;;;2.37;;
12385;SDS011;6257;57.634;18.310;2022-10-18T06:33:00;8.10;;;2.40;;
12385;SDS011;6257;57.634;18.310;2022-10-18T06:35:27;5.60;;;2.13;;
12385;SDS011;6257;57.634;18.310;2022-10-18T06:37:54;9.83;;;2.13;;
12385;SDS011;6257;57.634;18.310;2022-10-18T06:40:21;8.00;;;2.20;;
12385;SDS011;6257;57.634;18.310;2022-10-18T06:42:49;10.50;;;2.07;;
12385;SDS011;6257;57.634;18.310;2022-10-18T06:45:15;12.23;;;2.00;;
12385;SDS011;6257;57.634;18.310;2022-10-18T06:47:43;7.47;;;2.07;;
12385;SDS011;6257;57.634;18.310;2022-10-18T06:50:11;7.20;;;2.10;;
12385;SDS011;6257;57.634;18.310;2022-10-18T06:52:38;7.27;;;2.20;;
12385;SDS011;6257;57.634;18.310;2022-10-18T06:55:06;7.27;;;1.87;;
12385;SDS011;6257;57.634;18.310;2022-10-18T06:57:34;10.23;;;3.00;;
12385;SDS011;6257;57.634;18.310;2022-10-18T07:00:02;7.50;;;1.80;;
12385;SDS011;6257;57.634;18.310;2022-10-18T07:02:29;5.80;;;1.83;;
12385;SDS011;6257;57.634;18.310;2022-10-18T07:04:56;11.07;;;2.30;;
12385;SDS011;6257;57.634;18.310;2022-10-18T07:07:25;8.33;;;2.17;;
12385;SDS011;6257;57.634;18.310;2022-10-18T07:09:52;6.70;;;2.10;;
12385;SDS011;6257;57.634;18.310;2022-10-18T07:12:19;11.87;;;2.13;;
12385;SDS011;6257;57.634;18.310;2022-10-18T07:14:46;6.10;;;2.10;;
12385;SDS011;6257;57.634;18.310;2022-10-18T07:17:13;8.00;;;1.83;;
12385;SDS011;6257;57.634;18.310;2022-10-18T07:19:40;8.17;;;2.63;;
12385;SDS011;6257;57.634;18.310;2022-10-18T07:22:07;7.00;;;1.93;;
12385;SDS011;6257;57.634;18.310;2022-10-18T07:24:35;6.20;;;2.10;;
12385;SDS011;6257;57.634;18.310;2022-10-18T07:27:02;10.47;;;2.00;;
12385;SDS011;6257;57.634;18.310;2022-10-18T07:29:29;2.50;;;0.90;;
12385;SDS011;6257;57.634;18.310;2022-10-18T07:31:56;1.63;;;0.70;;
12385;SDS011;6257;57.634;18.310;2022-10-18T07:34:23;1.33;;;0.57;;
12385;SDS011;6257;57.634;18.310;2022-10-18T07:36:52;0.93;;;0.60;;
12385;SDS011;6257;57.634;18.310;2022-10-18T07:39:19;1.50;;;0.80;;
12385;SDS011;6257;57.634;18.310;2022-10-18T07:41:48;1.53;;;0.70;;
12385;SDS011;6257;57.634;18.310;2022-10-18T07:44:15;1.97;;;0.80;;
12385;SDS011;6257;57.634;18.310;2022-10-18T07:46:42;1.77;;;0.63;;
12385;SDS011;6257;57.634;18.310;2022-10-18T07:49:09;2.60;;;0.60;;
12385;SDS011;6257;57.634;18.310;2022-10-18T07:51:36;1.07;;;0.53;;
12385;SDS011;6257;57.634;18.310;2022-10-18T07:54:03;0.77;;;0.40;;
12385;SDS011;6257;57.634;18.310;2022-10-18T07:56:30;1.40;;;0.80;;
12385;SDS011;6257;57.634;18.310;2022-10-18T07:58:58;1.33;;;0.57;;
12385;SDS011;6257;57.634;18.310;2022-10-18T08:01:25;1.57;;;0.63;;
12385;SDS011;6257;57.634;18.310;2022-10-18T08:03:52;3.57;;;0.83;;
12385;SDS011;6257;57.634;18.310;2022-10-18T08:06:20;1.90;;;0.70;;
12385;SDS011;6257;57.634;18.310;2022-10-18T08:08:48;1.77;;;0.50;;
12385;SDS011;6257;57.634;18.310;2022-10-18T08:11:16;1.90;;;0.60;;
12385;SDS011;6257;57.634;18.310;2022-10-18T08:13:45;1.50;;;0.70;;
12385;SDS011;6257;57.634;18.310;2022-10-18T08:16:14;1.20;;;0.50;;
12385;SDS011;6257;57.634;18.310;2022-10-18T08:18:44;1.40;;;0.50;;
12385;SDS011;6257;57.634;18.310;2022-10-18T08:21:11;1.67;;;0.50;;
12385;SDS011;6257;57.634;18.310;2022-10-18T08:23:40;1.40;;;0.50;;
12385;SDS011;6257;57.634;18.310;2022-10-18T08:26:09;1.13;;;0.60;;
12385;SDS011;6257;57.634;18.310;2022-10-18T08:28:38;3.33;;;0.50;;
12385;SDS011;6257;57.634;18.310;2022-10-18T08:31:05;1.57;;;0.53;;
12385;SDS011;6257;57.634;18.310;2022-10-18T08:33:35;2.87;;;0.80;;
12385;SDS011;6257;57.634;18.310;2022-10-18T08:36:03;2.93;;;0.70;;
12385;SDS011;6257;57.634;18.310;2022-10-18T08:38:32;2.43;;;0.57;;
12385;SDS011;6257;57.634;18.310;2022-10-18T08:41:00;2.23;;;0.60;;
12385;SDS011;6257;57.634;18.310;2022-10-18T08:43:39;1.30;;;0.53;;
12385;SDS011;6257;57.634;18.310;2022-10-18T08:46:12;2.10;;;0.73;;
12385;SDS011;6257;57.634;18.310;2022-10-18T08:48:41;0.50;;;0.50;;
12385;SDS011;6257;57.634;18.310;2022-10-18T08:51:13;3.23;;;0.90;;
12385;SDS011;6257;57.634;18.310;2022-10-18T08:53:50;2.60;;;0.87;;
12385;SDS011;6257;57.634;18.310;2022-10-18T08:56:22;1.63;;;0.73;;
12385;SDS011;6257;57.634;18.310;2022-10-18T08:58:49;0.83;;;0.67;;
12385;SDS011;6257;57.634;18.310;2022-10-18T09:01:19;4.07;;;1.10;;
12385;SDS011;6257;57.634;18.310;2022-10-18T09:04:02;6.07;;;1.13;;
12385;SDS011;6257;57.634;18.310;2022-10-18T09:06:48;6.57;;;1.30;;
12385;SDS011;6257;57.634;18.310;2022-10-18T09:09:24;4.37;;;1.70;;
12385;SDS011;6257;57.634;18.310;2022-10-18T09:12:02;6.33;;;1.87;;
12385;SDS011;6257;57.634;18.310;2022-10-18T09:14:45;5.70;;;1.83;;
12385;SDS011;6257;57.634;18.310;2022-10-18T09:17:31;8.40;;;2.50;;
12385;SDS011;6257;57.634;18.310;2022-10-18T09:20:18;9.90;;;2.73;;
12385;SDS011;6257;57.634;18.310;2022-10-18T09:22:52;9.57;;;2.23;;
12385;SDS011;6257;57.634;18.310;2022-10-18T09:25:22;14.03;;;2.93;;
12385;SDS011;6257;57.634;18.310;2022-10-18T09:27:51;8.37;;;2.30;;
12385;SDS011;6257;57.634;18.310;2022-10-18T09:30:38;9.57;;;3.07;;
12385;SDS011;6257;57.634;18.310;2022-10-18T09:33:15;4.93;;;2.30;;
12385;SDS011;6257;57.634;18.310;2022-10-18T09:35:53;8.70;;;2.63;;
12385;SDS011;6257;57.634;18.310;2022-10-18T09:38:23;14.33;;;3.20;;
12385;SDS011;6257;57.634;18.310;2022-10-18T09:40:55;9.73;;;2.87;;
12385;SDS011;6257;57.634;18.310;2022-10-18T09:43:30;9.03;;;2.40;;
12385;SDS011;6257;57.634;18.310;2022-10-18T09:46:05;7.97;;;2.47;;
12385;SDS011;6257;57.634;18.310;2022-10-18T09:48:35;14.17;;;3.07;;
12385;SDS011;6257;57.634;18.310;2022-10-18T09:51:09;10.30;;;2.60;;
12385;SDS011;6257;57.634;18.310;2022-10-18T09:53:42;7.67;;;1.80;;
12385;SDS011;6257;57.634;18.310;2022-10-18T09:56:17;6.33;;;2.03;;
12385;SDS011;6257;57.634;18.310;2022-10-18T09:58:50;10.90;;;2.73;;
12385;SDS011;6257;57.634;18.310;2022-10-18T10:01:18;13.00;;;2.70;;
12385;SDS011;6257;57.634;18.310;2022-10-18T10:03:48;15.90;;;2.20;;
12385;SDS011;6257;57.634;18.310;2022-10-18T10:06:21;7.90;;;2.43;;
12385;SDS011;6257;57.634;18.310;2022-10-18T10:08:53;7.33;;;2.20;;
12385;SDS011;6257;57.634;18.310;2022-10-18T10:11:32;7.40;;;2.03;;
12385;SDS011;6257;57.634;18.310;2022-10-18T10:14:09;5.70;;;2.20;;
12385;SDS011;6257;57.634;18.310;2022-10-18T10:16:45;11.77;;;2.17;;
12385;SDS011;6257;57.634;18.310;2022-10-18T10:19:15;10.80;;;2.40;;
12385;SDS011;6257;57.634;18.310;2022-10-18T10:21:50;7.53;;;1.90;;
12385;SDS011;6257;57.634;18.310;2022-10-18T10:24:20;10.27;;;2.40;;
12385;SDS011;6257;57.634;18.310;2022-10-18T10:26:57;7.47;;;2.03;;
12385;SDS011;6257;57.634;18.310;2022-10-18T10:32:18;12.50;;;2.27;;
12385;SDS011;6257;57.634;18.310;2022-10-18T10:34:47;8.20;;;2.27;;
12385;SDS011;6257;57.634;18.310;2022-10-18T10:37:24;9.23;;;2.23;;
12385;SDS011;6257;57.634;18.310;2022-10-18T10:40:12;13.00;;;2.90;;
12385;SDS011;6257;57.634;18.310;2022-10-18T10:42:58;12.27;;;3.30;;
12385;SDS011;6257;57.634;18.310;2022-10-18T10:45:28;7.60;;;2.50;;
12385;SDS011;6257;57.634;18.310;2022-10-18T10:48:02;7.67;;;2.10;;
12385;SDS011;6257;57.634;18.310;2022-10-18T10:50:31;8.40;;;2.17;;
12385;SDS011;6257;57.634;18.310;2022-10-18T10:53:26;10.47;;;2.20;;
12385;SDS011;6257;57.634;18.310;2022-10-18T10:56:01;10.10;;;2.73;;
12385;SDS011;6257;57.634;18.310;2022-10-18T10:58:32;12.33;;;2.70;;
12385;SDS011;6257;57.634;18.310;2022-10-18T11:03:55;10.30;;;2.50;;
12385;SDS011;6257;57.634;18.310;2022-10-18T11:06:27;9.30;;;2.47;;
12385;SDS011;6257;57.634;18.310;2022-10-18T11:09:18;8.83;;;2.30;;
12385;SDS011;6257;57.634;18.310;2022-10-18T11:11:55;7.60;;;2.33;;
12385;SDS011;6257;57.634;18.310;2022-10-18T11:14:28;8.67;;;2.47;;
12385;SDS011;6257;57.634;18.310;2022-10-18T11:17:06;10.27;;;2.27;;
12385;SDS011;6257;57.634;18.310;2022-10-18T11:19:43;9.63;;;2.07;;
12385;SDS011;6257;57.634;18.310;2022-10-18T11:22:21;11.53;;;2.13;;
12385;SDS011;6257;57.634;18.310;2022-10-18T11:24:52;14.30;;;3.07;;
12385;SDS011;6257;57.634;18.310;2022-10-18T11:27:21;7.90;;;2.20;;
12385;SDS011;6257;57.634;18.310;2022-10-18T11:30:03;12.40;;;3.00;;
12385;SDS011;6257;57.634;18.310;2022-10-18T11:32:46;8.27;;;1.80;;
12385;SDS011;6257;57.634;18.310;2022-10-18T11:35:22;11.30;;;2.27;;
12385;SDS011;6257;57.634;18.310;2022-10-18T11:38:01;8.60;;;2.87;;
12385;SDS011;6257;57.634;18.310;2022-10-18T11:40:49;11.47;;;2.80;;
12385;SDS011;6257;57.634;18.310;2022-10-18T11:43:29;8.73;;;2.43;;
12385;SDS011;6257;57.634;18.310;2022-10-18T11:46:03;8.47;;;2.23;;
12385;SDS011;6257;57.634;18.310;2022-10-18T11:48:44;8.87;;;2.20;;
12385;SDS011;6257;57.634;18.310;2022-10-18T11:51:22;7.70;;;2.23;;
12385;SDS011;6257;57.634;18.310;2022-10-18T11:54:00;12.03;;;2.93;;
12385;SDS011;6257;57.634;18.310;2022-10-18T11:56:52;12.17;;;2.23;;
12385;SDS011;6257;57.634;18.310;2022-10-18T11:59:27;7.93;;;2.50;;
12385;SDS011;6257;57.634;18.310;2022-10-18T12:02:08;11.33;;;2.30;;
12385;SDS011;6257;57.634;18.310;2022-10-18T12:04:46;8.80;;;2.40;;
12385;SDS011;6257;57.634;18.310;2022-10-18T12:07:16;7.57;;;2.33;;
12385;SDS011;6257;57.634;18.310;2022-10-18T12:09:46;10.70;;;2.53;;
12385;SDS011;6257;57.634;18.310;2022-10-18T12:12:19;8.23;;;2.20;;
12385;SDS011;6257;57.634;18.310;2022-10-18T12:14:50;9.37;;;2.10;;
12385;SDS011;6257;57.634;18.310;2022-10-18T12:17:22;11.17;;;2.40;;
12385;SDS011;6257;57.634;18.310;2022-10-18T12:19:57;4.77;;;1.90;;
12385;SDS011;6257;57.634;18.310;2022-10-18T12:22:28;8.40;;;2.63;;
12385;SDS011;6257;57.634;18.310;2022-10-18T12:25:00;9.90;;;1.70;;
12385;SDS011;6257;57.634;18.310;2022-10-18T12:27:32;6.40;;;1.77;;
12385;SDS011;6257;57.634;18.310;2022-10-18T12:30:07;10.57;;;2.20;;
12385;SDS011;6257;57.634;18.310;2022-10-18T12:32:44;9.17;;;2.43;;
12385;SDS011;6257;57.634;18.310;2022-10-18T12:35:13;8.13;;;2.03;;
12385;SDS011;6257;57.634;18.310;2022-10-18T12:37:53;7.00;;;1.67;;
12385;SDS011;6257;57.634;18.310;2022-10-18T12:40:29;5.57;;;1.37;;
12385;SDS011;6257;57.634;18.310;2022-10-18T12:43:02;8.60;;;2.00;;
12385;SDS011;6257;57.634;18.310;2022-10-18T12:45:34;9.60;;;2.23;;
12385;SDS011;6257;57.634;18.310;2022-10-18T12:48:24;11.37;;;2.70;;
12385;SDS011;6257;57.634;18.310;2022-10-18T12:50:56;7.27;;;1.93;;
12385;SDS011;6257;57.634;18.310;2022-10-18T12:53:26;9.07;;;2.00;;
12385;SDS011;6257;57.634;18.310;2022-10-18T12:55:54;8.30;;;2.30;;
12385;SDS011;6257;57.634;18.310;2022-10-18T12:58:42;9.13;;;2.03;;
12385;SDS011;6257;57.634;18.310;2022-10-18T13:01:09;7.60;;;2.33;;
12385;SDS011;6257;57.634;18.310;2022-10-18T13:03:40;5.17;;;1.83;;
12385;SDS011;6257;57.634;18.310;2022-10-18T13:06:18;12.17;;;2.70;;
12385;SDS011;6257;57.634;18.310;2022-10-18T13:08:46;9.37;;;2.37;;
12385;SDS011;6257;57.634;18.310;2022-10-18T13:14:13;10.60;;;3.10;;
12385;SDS011;6257;57.634;18.310;2022-10-18T13:16:54;9.40;;;3.03;;
12385;SDS011;6257;57.634;18.310;2022-10-18T13:19:29;9.97;;;2.73;;
12385;SDS011;6257;57.634;18.310;2022-10-18T13:22:12;12.37;;;2.77;;
12385;SDS011;6257;57.634;18.310;2022-10-18T13:24:53;12.13;;;2.37;;
12385;SDS011;6257;57.634;18.310;2022-10-18T13:27:30;7.60;;;2.30;;
12385;SDS011;6257;57.634;18.310;2022-10-18T13:33:01;8.77;;;2.27;;
12385;SDS011;6257;57.634;18.310;2022-10-18T13:35:47;8.70;;;2.87;;
12385;SDS011;6257;57.634;18.310;2022-10-18T13:38:30;8.73;;;2.80;;
12385;SDS011;6257;57.634;18.310;2022-10-18T13:41:23;11.07;;;2.83;;
12385;SDS011;6257;57.634;18.310;2022-10-18T13:43:56;10.03;;;2.63;;
12385;SDS011;6257;57.634;18.310;2022-10-18T13:52:56;6.63;;;2.67;;
12385;SDS011;6257;57.634;18.310;2022-10-18T13:55:39;8.77;;;2.70;;
12385;SDS011;6257;57.634;18.310;2022-10-18T13:58:19;10.80;;;3.03;;
12385;SDS011;6257;57.634;18.310;2022-10-18T14:01:05;8.90;;;2.27;;
12385;SDS011;6257;57.634;18.310;2022-10-18T14:03:47;13.50;;;3.80;;
12385;SDS011;6257;57.634;18.310;2022-10-18T14:06:48;9.47;;;2.60;;
12385;SDS011;6257;57.634;18.310;2022-10-18T14:09:18;13.33;;;2.50;;
12385;SDS011;6257;57.634;18.310;2022-10-18T14:11:48;12.00;;;2.80;;
12385;SDS011;6257;57.634;18.310;2022-10-18T14:14:19;6.37;;;2.07;;
12385;SDS011;6257;57.634;18.310;2022-10-18T14:16:55;9.63;;;2.40;;
12385;SDS011;6257;57.634;18.310;2022-10-18T14:19:32;10.23;;;2.87;;
12385;SDS011;6257;57.634;18.310;2022-10-18T14:22:09;11.50;;;2.57;;
12385;SDS011;6257;57.634;18.310;2022-10-18T14:24:41;13.13;;;2.77;;
12385;SDS011;6257;57.634;18.310;2022-10-18T14:27:16;14.17;;;3.07;;
12385;SDS011;6257;57.634;18.310;2022-10-18T14:29:44;10.40;;;2.17;;
12385;SDS011;6257;57.634;18.310;2022-10-18T14:32:23;9.43;;;2.47;;
12385;SDS011;6257;57.634;18.310;2022-10-18T14:34:52;10.77;;;2.40;;
12385;SDS011;6257;57.634;18.310;2022-10-18T14:37:24;10.23;;;3.27;;
12385;SDS011;6257;57.634;18.310;2022-10-18T14:39:53;11.70;;;4.27;;
12385;SDS011;6257;57.634;18.310;2022-10-18T14:42:21;12.27;;;4.20;;
12385;SDS011;6257;57.634;18.310;2022-10-18T14:44:50;10.97;;;4.07;;
12385;SDS011;6257;57.634;18.310;2022-10-18T14:47:19;12.40;;;4.27;;
12385;SDS011;6257;57.634;18.310;2022-10-18T14:49:48;12.43;;;3.60;;
12385;SDS011;6257;57.634;18.310;2022-10-18T14:52:18;9.87;;;2.93;;
12385;SDS011;6257;57.634;18.310;2022-10-18T14:54:52;9.10;;;3.03;;
12385;SDS011;6257;57.634;18.310;2022-10-18T14:57:21;10.33;;;3.40;;
12385;SDS011;6257;57.634;18.310;2022-10-18T14:59:54;10.63;;;3.80;;
12385;SDS011;6257;57.634;18.310;2022-10-18T15:02:24;16.17;;;3.47;;
12385;SDS011;6257;57.634;18.310;2022-10-18T15:04:56;8.23;;;3.23;;
12385;SDS011;6257;57.634;18.310;2022-10-18T15:07:25;12.10;;;3.40;;
12385;SDS011;6257;57.634;18.310;2022-10-18T15:09:55;13.97;;;4.13;;
12385;SDS011;6257;57.634;18.310;2022-10-18T15:12:24;16.73;;;4.60;;
12385;SDS011;6257;57.634;18.310;2022-10-18T15:14:53;15.40;;;5.17;;
12385;SDS011;6257;57.634;18.310;2022-10-18T15:17:23;13.63;;;4.30;;
12385;SDS011;6257;57.634;18.310;2022-10-18T15:19:52;11.40;;;3.80;;
12385;SDS011;6257;57.634;18.310;2022-10-18T15:22:22;11.33;;;3.23;;
12385;SDS011;6257;57.634;18.310;2022-10-18T15:25:05;11.40;;;2.97;;
12385;SDS011;6257;57.634;18.310;2022-10-18T15:27:41;10.53;;;3.33;;
12385;SDS011;6257;57.634;18.310;2022-10-18T15:30:17;10.50;;;4.23;;